Oak Creek, Colorado
Current Conditions -  °F | °C
As of 1:35 AM on Saturday 25 Oct 2014 (Local Time) from KSBS Reporting Station
Clear Clear  
Wind Chill: 40°   Ceiling: Unl
Heat Index: 40°   Visibility: 10mi
Dew Point: 26°   Wind: 0mph
Humidity: 58%   Direction: NA
Pressure: 30.36"   Gusts: NA
Location:  40.27°N, 106.96°W
Report Text: KSBS 250735Z AUTO 00000KT 10SM CLR 04/M03 A3036 RMK AO1 T00421034
Loading
Personal Weather Stations






























Interactive Weather Map
Tropical Storm Tracking
New forecast layout! Learn more

10-Day Weather Forecast

Advertisements
Track Severe Weather on mobile